Time;durP1;ratioP1;P1;durP2;ratioP2;P2;SDS_P1;SDS_P2;PMS_P1;PMS_P2;Temp;Humidity;BMP_temperature;BMP_pressure;BME280_temperature;BME280_humidity;BME280_pressure;Samples;Min_cycle;Max_cycle;Signal;HPM_P1;HPM_P2
2022/03/26 00:00:37;;;;;;;88.87;40.97;;;5.20;99.90;;;;;;4804847;29;20491;-84
2022/03/26 00:03:04;;;;;;;91.73;41.63;;;5.30;99.90;;;;;;4806281;29;20053;-84
2022/03/26 00:05:30;;;;;;;95.80;43.03;;;5.40;99.90;;;;;;4794251;29;20066;-84
2022/03/26 00:07:55;;;;;;;71.07;32.63;;;5.50;99.90;;;;;;4781860;29;20043;-84
2022/03/26 00:10:21;;;;;;;55.20;26.13;;;5.40;99.90;;;;;;4798889;29;20046;-84
2022/03/26 00:12:47;;;;;;;54.70;25.73;;;5.50;99.90;;;;;;4783815;29;20043;-84
2022/03/26 00:15:13;;;;;;;55.10;24.97;;;5.40;99.90;;;;;;4795468;29;20115;-83
2022/03/26 00:17:39;;;;;;;67.17;31.30;;;5.30;99.90;;;;;;4791351;29;20154;-84
2022/03/26 00:20:06;;;;;;;119.37;51.17;;;5.30;99.90;;;;;;4791788;29;20125;-84
2022/03/26 00:22:32;;;;;;;69.87;31.23;;;5.40;99.90;;;;;;4792106;29;20042;-84
2022/03/26 00:24:58;;;;;;;98.67;45.00;;;5.50;99.90;;;;;;4795955;29;20137;-84
2022/03/26 00:27:24;;;;;;;64.80;31.27;;;5.60;99.90;;;;;;4787833;29;20130;-83
2022/03/26 00:29:50;;;;;;;74.57;34.57;;;5.50;99.90;;;;;;4800046;29;20049;-84
2022/03/26 00:32:15;;;;;;;56.77;27.73;;;5.50;99.90;;;;;;4797367;29;20125;-84
2022/03/26 00:34:41;;;;;;;63.33;28.57;;;5.40;99.90;;;;;;4797100;29;20077;-83
2022/03/26 00:37:07;;;;;;;63.60;26.63;;;5.30;99.90;;;;;;4796822;29;20050;-83
2022/03/26 00:39:33;;;;;;;58.50;26.67;;;5.20;99.90;;;;;;4806899;29;20080;-84
2022/03/26 00:41:59;;;;;;;94.13;41.80;;;5.20;99.90;;;;;;4779632;29;20050;-84
2022/03/26 00:44:25;;;;;;;57.00;27.30;;;5.10;99.90;;;;;;4806520;29;20050;-83
2022/03/26 00:46:51;;;;;;;61.50;27.07;;;5.00;99.90;;;;;;4801008;29;20079;-84
2022/03/26 00:49:18;;;;;;;53.53;25.23;;;5.00;99.90;;;;;;4819320;29;20106;-83
2022/03/26 00:51:45;;;;;;;58.60;26.70;;;5.00;99.90;;;;;;4794563;29;20050;-84
2022/03/26 00:54:12;;;;;;;56.63;27.90;;;4.90;99.90;;;;;;4797500;29;20110;-83
2022/03/26 00:56:39;;;;;;;52.10;26.00;;;4.90;99.90;;;;;;4807149;29;20050;-83
2022/03/26 00:59:06;;;;;;;61.13;27.53;;;4.90;99.90;;;;;;4788637;29;20045;-83
2022/03/26 01:01:32;;;;;;;60.23;28.17;;;4.80;99.90;;;;;;4798791;29;20047;-84
2022/03/26 01:04:01;;;;;;;61.80;29.00;;;4.80;99.90;;;;;;4793760;29;20064;-83
2022/03/26 01:06:27;;;;;;;69.67;31.93;;;4.80;99.90;;;;;;4796876;29;20054;-84
2022/03/26 01:08:54;;;;;;;70.07;32.83;;;4.80;99.90;;;;;;4807466;29;20046;-83
2022/03/26 01:11:20;;;;;;;72.37;34.60;;;4.70;99.90;;;;;;4795132;29;20106;-83
2022/03/26 01:13:49;;;;;;;66.90;31.57;;;4.80;99.90;;;;;;4797962;29;20133;-83
2022/03/26 01:16:15;;;;;;;67.83;31.47;;;4.70;99.90;;;;;;4809646;29;20167;-83
2022/03/26 01:18:42;;;;;;;74.63;31.17;;;4.60;99.90;;;;;;4809699;29;20057;-83
2022/03/26 01:21:08;;;;;;;67.17;30.93;;;4.60;99.90;;;;;;4805917;29;20042;-83
2022/03/26 01:23:34;;;;;;;74.13;31.10;;;4.50;99.90;;;;;;4794847;29;20038;-83
2022/03/26 01:26:00;;;;;;;69.83;31.13;;;4.50;99.90;;;;;;4808816;29;20050;-83
2022/03/26 01:28:26;;;;;;;69.43;32.13;;;4.50;99.90;;;;;;4808598;29;20066;-83
2022/03/26 01:30:52;;;;;;;68.20;32.03;;;4.50;99.90;;;;;;4814861;29;20077;-83
2022/03/26 01:33:18;;;;;;;67.10;31.53;;;4.40;99.90;;;;;;4804468;29;20049;-83
2022/03/26 01:35:44;;;;;;;71.87;33.10;;;4.40;99.90;;;;;;4813749;29;20054;-83
2022/03/26 01:38:10;;;;;;;69.57;30.63;;;4.30;99.90;;;;;;4791080;29;20042;-83
2022/03/26 01:40:36;;;;;;;71.37;31.77;;;4.30;99.90;;;;;;4812817;29;20038;-83
2022/03/26 01:43:03;;;;;;;65.93;32.63;;;4.30;99.90;;;;;;4813280;29;20061;-83
2022/03/26 01:45:29;;;;;;;71.07;30.63;;;4.30;99.90;;;;;;4812088;29;20050;-83
2022/03/26 01:47:56;;;;;;;70.67;31.33;;;4.30;99.90;;;;;;4822962;29;20091;-83
2022/03/26 01:50:23;;;;;;;66.13;31.67;;;4.20;99.90;;;;;;4809128;29;20521;-83
2022/03/26 01:52:49;;;;;;;78.17;35.07;;;4.30;99.90;;;;;;4814196;29;20080;-83
2022/03/26 01:55:14;;;;;;;67.87;31.37;;;4.30;99.90;;;;;;4820645;29;20050;-83
2022/03/26 01:57:41;;;;;;;74.00;33.00;;;4.30;99.90;;;;;;4785607;29;20042;-83
2022/03/26 02:00:08;;;;;;;67.73;31.27;;;4.20;99.90;;;;;;4814189;29;20049;-83
2022/03/26 02:02:35;;;;;;;72.60;33.20;;;4.20;99.90;;;;;;4828521;29;20042;-83
2022/03/26 02:05:04;;;;;;;70.90;31.57;;;4.20;99.90;;;;;;4811021;29;20065;-83
2022/03/26 02:07:30;;;;;;;65.43;32.37;;;4.10;99.90;;;;;;4810708;29;20415;-83
2022/03/26 02:09:55;;;;;;;72.93;33.77;;;4.10;99.90;;;;;;4835717;29;20098;-83
2022/03/26 02:12:22;;;;;;;72.60;32.33;;;4.00;99.90;;;;;;4824915;29;20461;-83
2022/03/26 02:14:49;;;;;;;78.43;35.93;;;4.00;99.90;;;;;;4834315;29;20054;-83
2022/03/26 02:17:16;;;;;;;74.93;34.37;;;3.90;99.90;;;;;;4825751;29;20153;-83
2022/03/26 02:19:48;;;;;;;82.27;36.07;;;4.00;99.90;;;;;;4819979;29;20121;-83
2022/03/26 02:22:14;;;;;;;81.80;35.55;;;3.90;99.90;;;;;;4803945;29;20038;-83
2022/03/26 02:24:40;;;;;;;71.93;33.83;;;3.90;99.90;;;;;;4809624;29;20046;-83
2022/03/26 02:27:07;;;;;;;74.53;32.57;;;4.00;99.90;;;;;;4825879;29;20193;-83
2022/03/26 02:29:33;;;;;;;73.03;32.87;;;4.00;99.90;;;;;;4810765;29;20443;-83
2022/03/26 02:31:59;;;;;;;67.87;32.13;;;4.00;99.90;;;;;;4795547;29;20046;-83
2022/03/26 02:34:26;;;;;;;72.37;32.67;;;4.00;99.90;;;;;;4825502;29;20049;-83
2022/03/26 02:36:58;;;;;;;77.73;34.63;;;3.90;99.90;;;;;;4795661;29;20113;-83
2022/03/26 02:39:25;;;;;;;81.43;38.73;;;3.90;99.90;;;;;;4810118;29;20052;-83
2022/03/26 02:41:51;;;;;;;84.60;37.40;;;3.80;99.90;;;;;;4830994;29;20443;-83
2022/03/26 02:44:17;;;;;;;83.70;37.87;;;3.80;99.90;;;;;;4810572;29;20045;-83
2022/03/26 02:46:45;;;;;;;83.67;36.40;;;3.70;99.90;;;;;;4825634;29;20657;-83
2022/03/26 02:49:12;;;;;;;76.80;34.33;;;3.70;99.90;;;;;;4810359;29;20052;-83
2022/03/26 02:51:39;;;;;;;79.97;35.97;;;3.70;99.90;;;;;;4810020;29;20495;-82
2022/03/26 02:54:05;;;;;;;75.27;34.50;;;3.70;99.90;;;;;;4825407;29;20053;-82
2022/03/26 02:56:31;;;;;;;80.77;35.33;;;3.80;99.90;;;;;;4836554;29;20049;-83
2022/03/26 02:58:57;;;;;;;74.13;34.17;;;3.70;99.90;;;;;;4795253;29;20052;-83
2022/03/26 03:01:23;;;;;;;75.03;32.67;;;3.70;99.90;;;;;;4836656;29;20386;-83
2022/03/26 03:03:50;;;;;;;77.33;32.97;;;3.60;99.90;;;;;;4803809;29;20126;-83
2022/03/26 03:06:16;;;;;;;76.07;33.60;;;3.60;99.90;;;;;;4803637;29;20054;-83
2022/03/26 03:08:42;;;;;;;72.33;32.57;;;3.50;99.90;;;;;;4791811;29;20050;-83
2022/03/26 03:11:08;;;;;;;77.53;34.40;;;3.50;99.90;;;;;;4791659;29;20122;-83
2022/03/26 03:13:34;;;;;;;82.27;35.37;;;3.40;99.90;;;;;;4804869;29;20325;-83
2022/03/26 03:16:00;;;;;;;77.33;36.67;;;3.50;99.90;;;;;;4787650;29;20460;-82
2022/03/26 03:18:26;;;;;;;80.23;34.30;;;3.50;99.90;;;;;;4790581;29;20129;-82
2022/03/26 03:20:51;;;;;;;90.70;38.00;;;3.50;99.90;;;;;;4822000;29;20056;-83
2022/03/26 03:23:17;;;;;;;74.47;34.60;;;3.40;99.90;;;;;;4791930;29;20053;-82
2022/03/26 03:25:43;;;;;;;73.97;33.33;;;3.40;99.90;;;;;;4791743;29;20050;-83
2022/03/26 03:28:09;;;;;;;80.60;35.03;;;3.40;99.90;;;;;;4817689;29;20051;-82
2022/03/26 03:30:35;;;;;;;77.70;35.17;;;3.30;99.90;;;;;;4790930;29;20403;-83
2022/03/26 03:33:02;;;;;;;77.83;35.07;;;3.30;99.90;;;;;;4807154;29;20046;-83
2022/03/26 03:35:27;;;;;;;83.00;36.67;;;3.40;99.90;;;;;;4806390;29;20042;-83
2022/03/26 03:37:53;;;;;;;85.57;37.40;;;3.20;99.90;;;;;;4822972;29;20147;-83
2022/03/26 03:40:19;;;;;;;92.77;40.53;;;3.20;99.90;;;;;;4807194;29;20083;-83
2022/03/26 03:42:45;;;;;;;95.93;40.57;;;3.20;99.90;;;;;;4806817;29;20059;-83
2022/03/26 03:45:11;;;;;;;81.60;37.40;;;3.30;99.90;;;;;;4806401;29;20053;-83
2022/03/26 03:47:37;;;;;;;86.37;38.37;;;3.10;99.90;;;;;;4806523;29;20068;-83
2022/03/26 03:50:05;;;;;;;91.23;38.83;;;3.10;99.90;;;;;;4791687;29;20045;-83
2022/03/26 03:52:31;;;;;;;85.33;37.87;;;3.10;99.90;;;;;;4806268;29;20175;-82
2022/03/26 03:54:57;;;;;;;88.93;39.47;;;3.00;99.90;;;;;;4791311;29;20133;-83
2022/03/26 03:57:22;;;;;;;88.17;38.67;;;2.90;99.90;;;;;;4790229;29;20035;-83
2022/03/26 03:59:48;;;;;;;89.03;36.87;;;3.00;99.90;;;;;;4776134;29;20640;-83
2022/03/26 04:02:14;;;;;;;88.27;39.57;;;3.00;99.90;;;;;;4797819;29;20046;-83
2022/03/26 04:04:41;;;;;;;91.90;39.17;;;3.00;99.90;;;;;;4791473;29;20139;-83
2022/03/26 04:07:08;;;;;;;90.80;38.00;;;2.90;99.90;;;;;;4808988;29;20042;-83
2022/03/26 04:09:34;;;;;;;88.20;39.03;;;2.80;99.90;;;;;;4812069;29;20048;-83
2022/03/26 04:12:01;;;;;;;98.53;40.60;;;2.90;99.90;;;;;;4794286;29;20042;-83
2022/03/26 04:14:26;;;;;;;102.73;43.97;;;2.90;99.90;;;;;;4809062;29;20053;-83
2022/03/26 04:16:52;;;;;;;99.40;42.07;;;2.80;99.90;;;;;;4824354;29;20076;-83
2022/03/26 04:19:18;;;;;;;106.90;46.07;;;2.90;99.90;;;;;;4824274;29;20049;-83
2022/03/26 04:21:45;;;;;;;112.03;48.53;;;2.90;99.90;;;;;;4824341;29;20102;-83
2022/03/26 04:24:10;;;;;;;98.23;41.67;;;2.90;99.90;;;;;;4825310;29;20042;-83
2022/03/26 04:26:36;;;;;;;109.17;47.17;;;2.90;99.90;;;;;;4827019;29;20042;-83
2022/03/26 04:29:02;;;;;;;102.77;43.57;;;2.80;99.90;;;;;;4827297;29;20061;-83
2022/03/26 04:31:28;;;;;;;106.17;44.47;;;2.80;99.90;;;;;;4802690;29;20048;-83
2022/03/26 04:33:54;;;;;;;97.03;42.03;;;2.90;99.90;;;;;;4797280;29;20045;-83
2022/03/26 04:36:23;;;;;;;114.93;47.90;;;2.80;99.90;;;;;;4843309;29;20034;-83
2022/03/26 04:38:48;;;;;;;113.73;49.10;;;2.80;99.90;;;;;;4824664;29;20048;-83
2022/03/26 04:41:14;;;;;;;113.70;50.20;;;2.70;99.90;;;;;;4826707;29;20050;-83
2022/03/26 04:43:40;;;;;;;121.70;50.90;;;2.60;99.90;;;;;;4826989;29;20049;-83
2022/03/26 04:46:06;;;;;;;131.33;53.23;;;2.70;99.90;;;;;;4842099;29;20093;-83
2022/03/26 04:48:32;;;;;;;136.03;57.43;;;2.70;99.90;;;;;;4827422;29;20451;-83
2022/03/26 04:50:58;;;;;;;157.93;61.30;;;2.70;99.90;;;;;;4827709;29;20175;-83
2022/03/26 04:53:24;;;;;;;148.53;63.00;;;2.70;99.90;;;;;;4829673;29;20037;-83
2022/03/26 04:55:49;;;;;;;149.03;60.30;;;2.80;99.90;;;;;;4823986;29;20514;-83
2022/03/26 04:58:15;;;;;;;153.97;60.60;;;2.90;99.90;;;;;;4808204;29;20057;-84
2022/03/26 05:00:41;;;;;;;146.17;59.30;;;2.90;99.90;;;;;;4826732;29;20050;-83
2022/03/26 05:03:08;;;;;;;146.40;56.23;;;3.10;99.90;;;;;;4843358;29;20049;-83
2022/03/26 05:05:34;;;;;;;131.57;53.63;;;3.10;99.90;;;;;;4795709;29;20051;-83
2022/03/26 05:07:59;;;;;;;143.20;58.63;;;3.10;99.90;;;;;;4812284;29;20106;-83
2022/03/26 05:10:29;;;;;;;133.10;56.63;;;3.10;99.90;;;;;;4827056;29;20497;-82
2022/03/26 05:12:55;;;;;;;147.23;60.20;;;3.00;99.90;;;;;;4827464;29;20046;-83
2022/03/26 05:15:23;;;;;;;139.40;57.20;;;3.00;99.90;;;;;;4826583;29;20046;-83
2022/03/26 05:17:51;;;;;;;132.70;53.83;;;3.00;99.90;;;;;;4812021;29;20372;-83
2022/03/26 05:20:18;;;;;;;131.70;54.43;;;3.00;99.90;;;;;;4812024;29;20038;-83
2022/03/26 05:22:46;;;;;;;133.50;55.80;;;3.00;99.90;;;;;;4831456;29;20142;-83
2022/03/26 05:25:12;;;;;;;132.53;54.47;;;3.10;99.90;;;;;;4823706;29;20054;-83
2022/03/26 05:27:38;;;;;;;136.13;55.83;;;3.00;99.90;;;;;;4826053;29;20502;-83
2022/03/26 05:30:05;;;;;;;147.53;56.87;;;3.10;99.90;;;;;;4796838;29;20044;-83
2022/03/26 05:32:31;;;;;;;155.43;60.03;;;3.10;99.90;;;;;;4805061;29;20052;-83
2022/03/26 05:34:57;;;;;;;135.50;57.03;;;3.10;99.90;;;;;;4811168;29;20049;-83
2022/03/26 05:37:22;;;;;;;147.60;60.10;;;3.20;99.90;;;;;;4841773;29;20038;-83
2022/03/26 05:39:48;;;;;;;147.23;60.33;;;3.30;99.90;;;;;;4818873;29;20072;-83
2022/03/26 05:42:15;;;;;;;149.67;60.43;;;3.30;99.90;;;;;;4811173;29;20117;-83
2022/03/26 05:44:41;;;;;;;162.37;62.60;;;3.30;99.90;;;;;;4796430;29;20077;-83
2022/03/26 05:47:07;;;;;;;157.30;64.30;;;3.40;99.90;;;;;;4832922;29;20048;-83
2022/03/26 05:49:35;;;;;;;150.53;63.03;;;3.40;99.90;;;;;;4809833;29;20046;-83
2022/03/26 05:52:01;;;;;;;126.17;53.23;;;3.50;99.90;;;;;;4800819;29;20133;-83
2022/03/26 05:54:27;;;;;;;137.23;57.17;;;3.40;99.90;;;;;;4809657;29;20103;-83
2022/03/26 05:56:53;;;;;;;137.43;58.10;;;3.40;99.90;;;;;;4796787;29;20046;-83
2022/03/26 05:59:20;;;;;;;131.67;55.63;;;3.50;99.90;;;;;;4786222;29;20041;-83
2022/03/26 06:01:48;;;;;;;150.47;60.93;;;3.50;99.90;;;;;;4823139;29;20045;-83
2022/03/26 06:04:14;;;;;;;143.30;58.53;;;3.50;99.90;;;;;;4829366;29;20038;-83
2022/03/26 06:06:41;;;;;;;141.77;57.80;;;3.50;99.90;;;;;;4810775;29;20110;-82
2022/03/26 06:09:07;;;;;;;145.20;59.27;;;3.60;99.90;;;;;;4795671;29;20483;-83
2022/03/26 06:11:33;;;;;;;141.57;57.33;;;3.70;99.90;;;;;;4788162;29;20073;-82
2022/03/26 06:14:00;;;;;;;135.80;59.27;;;3.80;99.90;;;;;;4794741;29;20515;-83
2022/03/26 06:16:26;;;;;;;135.60;55.60;;;3.80;99.90;;;;;;4811002;29;20120;-83
2022/03/26 06:18:52;;;;;;;128.93;56.03;;;3.90;99.90;;;;;;4807587;29;20042;-83
2022/03/26 06:21:18;;;;;;;149.13;59.67;;;3.90;99.90;;;;;;4810591;29;20516;-83
2022/03/26 06:23:43;;;;;;;147.43;58.50;;;4.00;99.90;;;;;;4797727;29;20520;-83
2022/03/26 06:26:10;;;;;;;144.73;60.57;;;4.00;99.90;;;;;;4814474;29;20060;-82
2022/03/26 06:28:37;;;;;;;141.13;60.00;;;4.10;99.90;;;;;;4809763;29;20156;-83
2022/03/26 06:31:03;;;;;;;143.07;61.23;;;4.20;99.90;;;;;;4809432;29;20053;-83
2022/03/26 06:33:28;;;;;;;182.03;70.00;;;4.20;99.90;;;;;;4795326;29;20041;-83
2022/03/26 06:35:54;;;;;;;157.80;64.17;;;4.30;99.90;;;;;;4795222;29;20045;-83
2022/03/26 06:38:20;;;;;;;155.27;60.73;;;4.50;99.90;;;;;;4810124;29;20116;-83
2022/03/26 06:40:46;;;;;;;156.60;63.03;;;4.60;99.90;;;;;;4810190;29;20081;-82
2022/03/26 06:43:12;;;;;;;163.47;61.47;;;4.70;99.90;;;;;;4823314;29;20046;-83
2022/03/26 06:45:38;;;;;;;163.67;63.30;;;4.80;99.90;;;;;;4795224;29;20120;-83
2022/03/26 06:48:04;;;;;;;150.37;60.93;;;5.10;99.90;;;;;;4802137;29;20042;-83
2022/03/26 06:50:30;;;;;;;155.80;64.37;;;5.20;99.90;;;;;;4799993;29;20077;-83
2022/03/26 06:52:56;;;;;;;153.93;62.60;;;5.30;99.90;;;;;;4825462;29;20072;-83
2022/03/26 06:55:22;;;;;;;151.43;61.60;;;5.50;99.90;;;;;;4787200;29;20514;-83
2022/03/26 06:57:49;;;;;;;151.07;62.70;;;5.60;99.90;;;;;;4826421;29;20048;-83
2022/03/26 07:00:15;;;;;;;141.80;59.47;;;5.90;99.90;;;;;;4825369;29;20054;-84
2022/03/26 07:02:42;;;;;;;146.17;59.47;;;6.00;99.90;;;;;;4807641;29;20056;-83
2022/03/26 07:05:08;;;;;;;140.23;58.50;;;6.20;99.90;;;;;;4785893;29;20049;-83
2022/03/26 07:07:34;;;;;;;114.87;50.33;;;6.40;99.90;;;;;;4825235;29;20066;-83
2022/03/26 07:10:00;;;;;;;133.07;54.27;;;6.60;99.90;;;;;;4809697;29;20050;-83
2022/03/26 07:12:29;;;;;;;130.90;56.60;;;6.90;99.90;;;;;;4809522;29;20081;-83
2022/03/26 07:14:56;;;;;;;118.37;52.17;;;7.00;99.90;;;;;;4810478;29;20819;-83
2022/03/26 07:17:22;;;;;;;126.03;53.33;;;7.30;99.90;;;;;;4826649;29;20523;-83
2022/03/26 07:19:49;;;;;;;112.43;48.43;;;7.50;99.90;;;;;;4826021;29;20056;-84
2022/03/26 07:22:15;;;;;;;114.13;48.80;;;7.70;99.90;;;;;;4811520;29;20090;-83
2022/03/26 07:24:41;;;;;;;104.53;45.90;;;7.90;99.90;;;;;;4841366;29;20478;-84
2022/03/26 07:27:06;;;;;;;99.50;44.67;;;8.00;99.90;;;;;;4841212;29;20073;-83
2022/03/26 07:29:38;;;;;;;104.67;46.70;;;8.20;99.90;;;;;;4810718;29;20521;-84
2022/03/26 07:32:09;;;;;;;97.03;44.17;;;8.30;99.90;;;;;;4811001;29;20170;-83
2022/03/26 07:34:35;;;;;;;88.78;39.85;;;8.50;99.90;;;;;;4810379;29;20053;-83
2022/03/26 07:37:01;;;;;;;92.27;42.03;;;8.50;99.90;;;;;;4802944;29;20052;-82
2022/03/26 07:39:27;;;;;;;94.87;44.13;;;8.70;99.90;;;;;;4825939;29;20053;-83
2022/03/26 07:41:53;;;;;;;91.60;39.43;;;8.80;99.90;;;;;;4810986;29;20042;-83
2022/03/26 07:44:19;;;;;;;93.53;41.63;;;9.00;99.90;;;;;;4823868;29;20034;-82
2022/03/26 07:46:45;;;;;;;89.83;40.40;;;9.10;99.90;;;;;;4825837;29;20038;-83
2022/03/26 07:49:11;;;;;;;83.27;38.20;;;9.20;99.90;;;;;;4795732;29;20283;-83
2022/03/26 07:51:37;;;;;;;86.27;38.33;;;9.40;99.90;;;;;;4806348;29;20046;-83
2022/03/26 07:54:03;;;;;;;87.37;38.43;;;9.50;99.90;;;;;;4810326;29;20042;-83
2022/03/26 07:56:28;;;;;;;91.60;38.43;;;9.60;99.90;;;;;;4806835;29;20090;-83
2022/03/26 07:58:54;;;;;;;81.83;38.13;;;9.70;99.90;;;;;;4800374;29;20390;-82
2022/03/26 08:01:20;;;;;;;81.17;38.63;;;9.80;99.90;;;;;;4816374;29;20065;-83
2022/03/26 08:03:46;;;;;;;81.30;36.80;;;9.90;99.90;;;;;;4814544;29;20162;-82
2022/03/26 08:06:12;;;;;;;81.60;36.73;;;10.10;99.90;;;;;;4782673;29;20054;-82
2022/03/26 08:08:40;;;;;;;82.50;36.53;;;10.20;99.90;;;;;;4771944;29;20060;-84
2022/03/26 08:11:06;;;;;;;82.43;37.73;;;10.30;99.90;;;;;;4796354;29;20050;-83
2022/03/26 08:13:33;;;;;;;80.03;38.47;;;10.50;99.90;;;;;;4807265;29;20046;-84
2022/03/26 08:15:59;;;;;;;81.43;37.53;;;10.60;99.90;;;;;;4790572;29;20038;-84
2022/03/26 08:18:25;;;;;;;85.80;39.23;;;10.70;99.90;;;;;;4777048;29;20080;-84
2022/03/26 08:20:50;;;;;;;80.37;37.50;;;10.90;99.90;;;;;;4777186;29;20040;-84
2022/03/26 08:23:16;;;;;;;78.73;36.10;;;11.00;99.90;;;;;;4807570;29;20066;-84
2022/03/26 08:28:26;;;;;;;78.97;36.20;;;11.20;99.90;;;;;;4807450;29;20054;-84
2022/03/26 08:30:52;;;;;;;72.77;33.70;;;11.30;99.90;;;;;;4792593;29;20042;-83
2022/03/26 08:33:18;;;;;;;75.70;35.03;;;11.40;99.90;;;;;;4774077;29;20125;-83
2022/03/26 08:35:44;;;;;;;70.03;33.10;;;11.60;99.90;;;;;;4791263;29;20078;-84
2022/03/26 08:38:10;;;;;;;70.50;32.43;;;11.70;99.90;;;;;;4795545;29;20046;-83
2022/03/26 08:40:36;;;;;;;70.13;31.57;;;11.80;99.90;;;;;;4795030;29;20043;-84
2022/03/26 08:43:03;;;;;;;65.80;31.33;;;12.00;99.90;;;;;;4779715;29;20054;-84
2022/03/26 08:45:29;;;;;;;69.10;29.63;;;12.10;99.90;;;;;;4795297;29;20038;-83
2022/03/26 08:47:55;;;;;;;62.40;31.67;;;12.30;99.90;;;;;;4780326;29;20038;-83
2022/03/26 08:50:22;;;;;;;52.37;25.23;;;12.50;99.90;;;;;;4795299;29;20053;-83
2022/03/26 08:52:48;;;;;;;52.67;26.23;;;12.60;99.90;;;;;;4792866;29;20455;-84
2022/03/26 08:55:18;;;;;;;52.57;26.10;;;12.70;99.90;;;;;;4779959;29;20121;-83
2022/03/26 08:57:44;;;;;;;57.90;28.50;;;12.70;99.90;;;;;;4794866;29;20046;-84
2022/03/26 09:00:13;;;;;;;66.97;31.30;;;12.80;99.90;;;;;;4794807;29;20530;-83
2022/03/26 09:02:39;;;;;;;65.53;31.63;;;12.80;99.90;;;;;;4809923;29;20085;-83
2022/03/26 09:05:06;;;;;;;61.57;32.07;;;12.80;99.90;;;;;;4800762;29;20111;-85
2022/03/26 09:07:33;;;;;;;60.10;31.90;;;12.90;99.90;;;;;;4819780;29;20070;-84
2022/03/26 09:09:59;;;;;;;63.80;31.60;;;12.90;99.90;;;;;;4812049;29;20050;-85
2022/03/26 09:12:25;;;;;;;67.80;32.30;;;13.00;99.90;;;;;;4794728;29;20038;-86
2022/03/26 09:14:51;;;;;;;64.87;30.87;;;13.10;99.90;;;;;;4833775;29;20077;-86
2022/03/26 09:17:17;;;;;;;54.87;30.03;;;13.20;99.90;;;;;;4813202;29;20187;-84
2022/03/26 09:19:42;;;;;;;58.87;29.07;;;13.30;99.90;;;;;;4828101;29;20078;-85
2022/03/26 09:22:08;;;;;;;53.80;28.70;;;13.40;99.90;;;;;;4799293;29;20095;-86
2022/03/26 09:24:34;;;;;;;48.70;25.63;;;13.50;99.90;;;;;;4819255;29;20093;-84
2022/03/26 09:27:00;;;;;;;40.33;22.40;;;13.60;99.90;;;;;;4841081;29;20105;-85
2022/03/26 09:29:27;;;;;;;39.90;23.33;;;13.70;99.90;;;;;;4827608;29;20077;-83
2022/03/26 09:31:52;;;;;;;41.70;23.63;;;13.90;99.90;;;;;;4828050;29;20060;-83
2022/03/26 09:34:18;;;;;;;42.50;22.73;;;13.90;99.90;;;;;;4827600;29;20120;-84
2022/03/26 09:36:44;;;;;;;39.50;23.37;;;13.90;99.90;;;;;;4796901;29;20034;-84
2022/03/26 09:39:10;;;;;;;43.47;23.53;;;14.00;99.90;;;;;;4798202;29;20052;-87
2022/03/26 09:41:36;;;;;;;39.57;22.37;;;14.10;99.90;;;;;;4843347;29;20499;-87
2022/03/26 09:44:02;;;;;;;38.67;22.80;;;14.20;99.90;;;;;;4828271;29;20074;-86
2022/03/26 09:46:28;;;;;;;39.07;21.13;;;14.30;99.90;;;;;;4812629;29;20530;-87
2022/03/26 09:48:54;;;;;;;40.63;22.90;;;14.40;99.90;;;;;;4822474;29;20061;-86
2022/03/26 09:51:24;;;;;;;39.90;22.50;;;14.40;99.90;;;;;;4809842;29;20132;-87
2022/03/26 09:53:52;;;;;;;37.10;21.80;;;14.50;99.90;;;;;;4801180;29;20041;-85
2022/03/26 09:56:19;;;;;;;47.30;24.63;;;14.60;99.90;;;;;;4826404;29;20050;-86
2022/03/26 09:58:45;;;;;;;40.07;21.20;;;14.60;99.90;;;;;;4799951;29;20058;-87
2022/03/26 10:01:12;;;;;;;40.30;23.40;;;14.60;99.90;;;;;;4818892;29;20065;-87
2022/03/26 10:03:40;;;;;;;36.73;21.57;;;14.70;99.90;;;;;;4814598;29;20069;-86
2022/03/26 10:06:07;;;;;;;31.07;18.77;;;14.80;99.90;;;;;;4816954;29;20046;-87
2022/03/26 10:08:37;;;;;;;23.27;14.80;;;14.90;99.90;;;;;;4797961;29;20053;-86
2022/03/26 10:11:04;;;;;;;24.93;15.23;;;14.90;96.10;;;;;;4791335;29;20483;-86
2022/03/26 10:13:34;;;;;;;22.67;14.87;;;14.90;97.30;;;;;;4813677;29;20089;-87
2022/03/26 10:16:11;;;;;;;20.33;13.87;;;15.00;96.40;;;;;;4822524;29;20046;-87
2022/03/26 10:18:39;;;;;;;26.07;14.50;;;15.00;96.20;;;;;;4808819;29;20510;-87
2022/03/26 10:21:07;;;;;;;24.53;15.23;;;15.20;96.10;;;;;;4807639;29;20046;-86
2022/03/26 10:23:34;;;;;;;22.50;13.83;;;15.20;95.50;;;;;;4808234;29;20075;-85
2022/03/26 10:26:10;;;;;;;20.80;12.57;;;15.20;92.90;;;;;;4792966;29;20121;-86
2022/03/26 10:28:37;;;;;;;19.13;12.17;;;15.20;93.20;;;;;;4808685;29;20053;-88
2022/03/26 10:34:08;;;;;;;22.23;13.87;;;15.40;90.60;;;;;;4806727;29;20046;-87
2022/03/26 10:36:39;;;;;;;22.80;13.13;;;15.30;92.00;;;;;;4808663;29;20034;-83
2022/03/26 10:39:06;;;;;;;25.93;14.93;;;15.40;91.60;;;;;;4808307;29;20050;-85
2022/03/26 10:41:34;;;;;;;25.77;16.30;;;15.40;93.00;;;;;;4792944;29;20483;-86
2022/03/26 10:44:29;;;;;;;25.20;15.70;;;15.40;91.80;;;;;;4808311;29;20046;-87
2022/03/26 10:46:57;;;;;;;20.00;13.40;;;15.50;90.10;;;;;;4817353;29;20058;-87
2022/03/26 10:49:36;;;;;;;21.83;13.27;;;15.50;91.70;;;;;;4823239;29;20042;-85
2022/03/26 10:52:14;;;;;;;22.60;14.85;;;15.60;91.30;;;;;;4808025;29;20084;-87
2022/03/26 10:54:40;;;;;;;22.92;14.48;;;15.70;85.80;;;;;;4792623;29;20428;-88
2022/03/26 10:57:06;;;;;;;21.13;14.17;;;15.60;90.30;;;;;;4823261;29;20038;-87
2022/03/26 10:59:32;;;;;;;24.53;14.27;;;15.80;91.40;;;;;;4793669;29;20054;-84
2022/03/26 11:01:59;;;;;;;19.02;12.95;;;15.70;90.10;;;;;;4807626;29;20054;-84
2022/03/26 11:04:29;;;;;;;18.53;11.90;;;15.70;90.30;;;;;;4808407;29;20043;-84
2022/03/26 11:06:58;;;;;;;22.55;12.88;;;15.70;88.70;;;;;;4811818;29;20137;-88
2022/03/26 11:09:26;;;;;;;23.95;14.10;;;15.80;89.30;;;;;;4832109;29;20050;-85
2022/03/26 11:11:52;;;;;;;24.50;14.70;;;15.90;89.20;;;;;;4808352;29;20058;-85
2022/03/26 11:14:31;;;;;;;23.30;13.55;;;16.00;88.50;;;;;;4810129;29;20479;-86
2022/03/26 11:17:34;;;;;;;17.83;12.55;;;16.00;87.30;;;;;;4807937;29;20459;-87
2022/03/26 11:20:18;;;;;;;17.73;11.63;;;15.90;85.00;;;;;;4801559;29;20121;-85
2022/03/26 11:22:50;;;;;;;16.38;11.65;;;16.00;88.20;;;;;;4814171;29;20043;-85
2022/03/26 11:25:36;;;;;;;19.48;12.50;;;16.00;86.80;;;;;;4816706;29;20042;-85
2022/03/26 11:28:26;;;;;;;18.98;10.60;;;16.00;84.40;;;;;;4815031;29;20418;-83
2022/03/26 11:31:05;;;;;;;16.58;11.85;;;16.10;86.20;;;;;;4824492;29;20058;-85
2022/03/26 11:33:38;;;;;;;18.10;11.43;;;16.20;85.10;;;;;;4814922;29;20048;-85
2022/03/26 11:36:05;;;;;;;17.20;11.82;;;16.30;84.70;;;;;;4825599;29;20042;-86
2022/03/26 11:38:32;;;;;;;18.85;11.38;;;16.30;85.80;;;;;;4810237;29;20445;-85
2022/03/26 11:41:08;;;;;;;17.65;11.02;;;16.30;84.70;;;;;;4825984;29;20054;-84
2022/03/26 11:43:43;;;;;;;14.43;10.32;;;16.30;80.90;;;;;;4826981;29;20760;-87
2022/03/26 11:52:14;;;;;;;15.73;11.05;;;16.50;83.20;;;;;;4825262;29;20050;-86
2022/03/26 11:54:40;;;;;;;18.45;10.95;;;16.40;83.20;;;;;;4830255;29;20053;-87
2022/03/26 11:57:23;;;;;;;15.93;10.77;;;16.30;83.30;;;;;;4808215;29;20046;-85
2022/03/26 11:59:50;;;;;;;15.15;11.10;;;16.30;82.10;;;;;;4809960;29;20496;-88
2022/03/26 12:02:23;;;;;;;18.50;11.27;;;16.30;82.00;;;;;;4810373;29;20038;-86
2022/03/26 12:04:58;;;;;;;14.27;9.90;;;16.20;81.00;;;;;;4840746;29;20042;-86
2022/03/26 12:07:28;;;;;;;14.10;10.70;;;16.20;83.20;;;;;;4818890;29;20050;-85
2022/03/26 12:10:09;;;;;;;13.00;9.63;;;16.30;82.80;;;;;;4791443;29;20058;-84
2022/03/26 12:12:49;;;;;;;16.27;9.88;;;16.40;81.70;;;;;;4792081;29;20133;-85
2022/03/26 12:15:14;;;;;;;14.38;8.98;;;16.40;81.60;;;;;;4791569;29;20818;-84
2022/03/26 12:18:06;;;;;;;13.27;9.43;;;16.50;82.80;;;;;;4803278;29;20050;-84
2022/03/26 12:20:37;;;;;;;13.30;7.93;;;16.40;81.80;;;;;;4806140;29;20144;-85
2022/03/26 12:23:10;;;;;;;12.13;7.75;;;16.50;83.30;;;;;;4791412;29;20058;-84
2022/03/26 12:25:51;;;;;;;12.23;8.05;;;16.40;78.70;;;;;;4790954;29;20583;-84
2022/03/26 12:28:24;;;;;;;9.00;6.82;;;16.30;77.70;;;;;;4791548;29;20047;-85
2022/03/26 12:30:54;;;;;;;10.20;7.18;;;16.40;76.60;;;;;;4789749;29;20086;-83
2022/03/26 12:33:21;;;;;;;10.73;7.18;;;16.40;76.60;;;;;;4791011;29;20404;-86
2022/03/26 12:35:49;;;;;;;11.70;7.20;;;16.40;77.00;;;;;;4776078;29;20050;-86
2022/03/26 12:38:16;;;;;;;10.48;7.05;;;16.40;77.50;;;;;;4806272;29;20071;-86
2022/03/26 12:40:54;;;;;;;9.20;6.72;;;16.40;80.10;;;;;;4807729;29;20125;-85
2022/03/26 12:43:20;;;;;;;8.95;6.45;;;16.50;74.20;;;;;;4792805;29;20117;-85